sensor_id;sensor_type;location;lat;lon;timestamp;temperature;humidity
12039;DHT22;6080;48.818;9.526;2022-08-30T00:01:09;17.30;99.90
12039;DHT22;6080;48.818;9.526;2022-08-30T00:03:42;17.30;99.90
12039;DHT22;6080;48.818;9.526;2022-08-30T00:06:18;17.20;99.90
12039;DHT22;6080;48.818;9.526;2022-08-30T00:08:45;17.20;99.90
12039;DHT22;6080;48.818;9.526;2022-08-30T00:11:14;17.20;99.90
12039;DHT22;6080;48.818;9.526;2022-08-30T00:13:42;17.20;99.90
12039;DHT22;6080;48.818;9.526;2022-08-30T00:16:09;17.20;99.90
12039;DHT22;6080;48.818;9.526;2022-08-30T00:18:37;17.20;99.90
12039;DHT22;6080;48.818;9.526;2022-08-30T00:21:04;17.10;99.90
12039;DHT22;6080;48.818;9.526;2022-08-30T00:23:32;17.10;99.90
12039;DHT22;6080;48.818;9.526;2022-08-30T00:25:58;17.00;99.90
12039;DHT22;6080;48.818;9.526;2022-08-30T00:28:24;16.90;99.90
12039;DHT22;6080;48.818;9.526;2022-08-30T00:30:50;16.90;99.90
12039;DHT22;6080;48.818;9.526;2022-08-30T00:33:16;16.80;99.90
12039;DHT22;6080;48.818;9.526;2022-08-30T00:35:43;16.80;99.90
12039;DHT22;6080;48.818;9.526;2022-08-30T00:38:10;16.70;99.90
12039;DHT22;6080;48.818;9.526;2022-08-30T00:40:38;16.60;99.90
12039;DHT22;6080;48.818;9.526;2022-08-30T00:43:08;16.60;99.90
12039;DHT22;6080;48.818;9.526;2022-08-30T00:45:36;16.50;99.90
12039;DHT22;6080;48.818;9.526;2022-08-30T00:48:04;16.50;99.90
12039;DHT22;6080;48.818;9.526;2022-08-30T00:50:55;16.60;99.90
12039;DHT22;6080;48.818;9.526;2022-08-30T00:53:27;16.60;99.90
12039;DHT22;6080;48.818;9.526;2022-08-30T00:55:53;16.60;99.90
12039;DHT22;6080;48.818;9.526;2022-08-30T00:58:24;16.60;99.90
12039;DHT22;6080;48.818;9.526;2022-08-30T01:00:53;16.50;99.90
12039;DHT22;6080;48.818;9.526;2022-08-30T01:03:20;16.40;99.90
12039;DHT22;6080;48.818;9.526;2022-08-30T01:05:47;16.40;99.90
12039;DHT22;6080;48.818;9.526;2022-08-30T01:08:14;16.30;99.90
12039;DHT22;6080;48.818;9.526;2022-08-30T01:10:40;16.30;99.90
12039;DHT22;6080;48.818;9.526;2022-08-30T01:13:07;16.30;99.90
12039;DHT22;6080;48.818;9.526;2022-08-30T01:15:34;16.30;99.90
12039;DHT22;6080;48.818;9.526;2022-08-30T01:18:01;16.30;99.90
12039;DHT22;6080;48.818;9.526;2022-08-30T01:21:07;16.30;99.90
12039;DHT22;6080;48.818;9.526;2022-08-30T01:23:39;16.20;99.90
12039;DHT22;6080;48.818;9.526;2022-08-30T01:26:06;16.10;99.90
12039;DHT22;6080;48.818;9.526;2022-08-30T01:28:32;16.10;99.90
12039;DHT22;6080;48.818;9.526;2022-08-30T01:30:59;16.10;99.90
12039;DHT22;6080;48.818;9.526;2022-08-30T01:33:26;16.00;99.90
12039;DHT22;6080;48.818;9.526;2022-08-30T01:36:00;16.10;99.90
12039;DHT22;6080;48.818;9.526;2022-08-30T01:38:32;16.10;99.90
12039;DHT22;6080;48.818;9.526;2022-08-30T01:41:06;16.10;99.90
12039;DHT22;6080;48.818;9.526;2022-08-30T01:43:34;16.00;99.90
12039;DHT22;6080;48.818;9.526;2022-08-30T01:46:00;16.00;99.90
12039;DHT22;6080;48.818;9.526;2022-08-30T01:48:27;16.00;99.90
12039;DHT22;6080;48.818;9.526;2022-08-30T01:50:54;16.00;99.90
12039;DHT22;6080;48.818;9.526;2022-08-30T01:53:19;16.00;99.90
12039;DHT22;6080;48.818;9.526;2022-08-30T01:55:47;15.90;99.90
12039;DHT22;6080;48.818;9.526;2022-08-30T01:58:13;16.00;99.90
12039;DHT22;6080;48.818;9.526;2022-08-30T02:00:39;16.00;99.90
12039;DHT22;6080;48.818;9.526;2022-08-30T02:03:05;15.90;99.90
12039;DHT22;6080;48.818;9.526;2022-08-30T02:05:31;16.00;99.90
12039;DHT22;6080;48.818;9.526;2022-08-30T02:07:57;15.90;99.90
12039;DHT22;6080;48.818;9.526;2022-08-30T02:10:24;15.90;99.90
12039;DHT22;6080;48.818;9.526;2022-08-30T02:12:50;15.80;99.90
12039;DHT22;6080;48.818;9.526;2022-08-30T02:15:17;15.70;99.90
12039;DHT22;6080;48.818;9.526;2022-08-30T02:17:43;15.60;99.90
12039;DHT22;6080;48.818;9.526;2022-08-30T02:20:09;15.60;99.90
12039;DHT22;6080;48.818;9.526;2022-08-30T02:22:35;15.60;99.90
12039;DHT22;6080;48.818;9.526;2022-08-30T02:25:05;15.60;99.90
12039;DHT22;6080;48.818;9.526;2022-08-30T02:27:32;15.60;99.90
12039;DHT22;6080;48.818;9.526;2022-08-30T02:29:58;15.50;99.90
12039;DHT22;6080;48.818;9.526;2022-08-30T02:32:24;15.50;99.90
12039;DHT22;6080;48.818;9.526;2022-08-30T02:34:50;15.50;99.90
12039;DHT22;6080;48.818;9.526;2022-08-30T02:37:15;15.40;99.90
12039;DHT22;6080;48.818;9.526;2022-08-30T02:39:41;15.40;99.90
12039;DHT22;6080;48.818;9.526;2022-08-30T02:42:07;15.40;99.90
12039;DHT22;6080;48.818;9.526;2022-08-30T02:44:33;15.40;99.90
12039;DHT22;6080;48.818;9.526;2022-08-30T02:46:59;15.40;99.90
12039;DHT22;6080;48.818;9.526;2022-08-30T02:49:25;15.40;99.90
12039;DHT22;6080;48.818;9.526;2022-08-30T02:51:51;15.40;99.90
12039;DHT22;6080;48.818;9.526;2022-08-30T02:54:17;15.30;99.90
12039;DHT22;6080;48.818;9.526;2022-08-30T02:56:48;15.30;99.90
12039;DHT22;6080;48.818;9.526;2022-08-30T02:59:15;15.30;99.90
12039;DHT22;6080;48.818;9.526;2022-08-30T03:01:42;15.20;99.90
12039;DHT22;6080;48.818;9.526;2022-08-30T03:04:08;15.20;99.90
12039;DHT22;6080;48.818;9.526;2022-08-30T03:06:35;15.20;99.90
12039;DHT22;6080;48.818;9.526;2022-08-30T03:09:00;15.20;99.90
12039;DHT22;6080;48.818;9.526;2022-08-30T03:11:26;15.20;99.90
12039;DHT22;6080;48.818;9.526;2022-08-30T03:13:52;15.20;99.90
12039;DHT22;6080;48.818;9.526;2022-08-30T03:16:18;15.10;99.90
12039;DHT22;6080;48.818;9.526;2022-08-30T03:18:46;15.10;99.90
12039;DHT22;6080;48.818;9.526;2022-08-30T03:21:14;15.10;99.90
12039;DHT22;6080;48.818;9.526;2022-08-30T03:23:41;15.00;99.90
12039;DHT22;6080;48.818;9.526;2022-08-30T03:26:08;15.00;99.90
12039;DHT22;6080;48.818;9.526;2022-08-30T03:28:37;15.00;99.90
12039;DHT22;6080;48.818;9.526;2022-08-30T03:31:03;15.00;99.90
12039;DHT22;6080;48.818;9.526;2022-08-30T03:33:30;15.00;99.90
12039;DHT22;6080;48.818;9.526;2022-08-30T03:35:56;15.00;99.90
12039;DHT22;6080;48.818;9.526;2022-08-30T03:38:21;14.90;99.90
12039;DHT22;6080;48.818;9.526;2022-08-30T03:40:48;14.80;99.90
12039;DHT22;6080;48.818;9.526;2022-08-30T03:43:14;14.80;99.90
12039;DHT22;6080;48.818;9.526;2022-08-30T03:45:41;14.80;99.90
12039;DHT22;6080;48.818;9.526;2022-08-30T03:48:07;14.90;99.90
12039;DHT22;6080;48.818;9.526;2022-08-30T03:50:34;14.90;99.90
12039;DHT22;6080;48.818;9.526;2022-08-30T03:53:02;14.90;99.90
12039;DHT22;6080;48.818;9.526;2022-08-30T03:55:28;15.00;99.90
12039;DHT22;6080;48.818;9.526;2022-08-30T03:57:54;15.00;99.90
12039;DHT22;6080;48.818;9.526;2022-08-30T04:00:21;14.90;99.90
12039;DHT22;6080;48.818;9.526;2022-08-30T04:02:47;14.80;99.90
12039;DHT22;6080;48.818;9.526;2022-08-30T04:05:13;14.80;99.90
12039;DHT22;6080;48.818;9.526;2022-08-30T04:07:39;14.80;99.90
12039;DHT22;6080;48.818;9.526;2022-08-30T04:10:07;14.80;99.90
12039;DHT22;6080;48.818;9.526;2022-08-30T04:12:33;14.70;99.90
12039;DHT22;6080;48.818;9.526;2022-08-30T04:14:59;14.70;99.90
12039;DHT22;6080;48.818;9.526;2022-08-30T04:17:25;14.70;99.90
12039;DHT22;6080;48.818;9.526;2022-08-30T04:19:51;14.70;99.90
12039;DHT22;6080;48.818;9.526;2022-08-30T04:22:17;14.70;99.90
12039;DHT22;6080;48.818;9.526;2022-08-30T04:24:43;14.70;99.90
12039;DHT22;6080;48.818;9.526;2022-08-30T04:27:09;14.60;99.90
12039;DHT22;6080;48.818;9.526;2022-08-30T04:29:35;14.60;99.90
12039;DHT22;6080;48.818;9.526;2022-08-30T04:32:01;14.60;99.90
12039;DHT22;6080;48.818;9.526;2022-08-30T04:34:27;14.60;99.90
12039;DHT22;6080;48.818;9.526;2022-08-30T04:36:53;14.60;99.90
12039;DHT22;6080;48.818;9.526;2022-08-30T04:39:19;14.60;99.90
12039;DHT22;6080;48.818;9.526;2022-08-30T04:41:45;14.60;99.90
12039;DHT22;6080;48.818;9.526;2022-08-30T04:44:11;14.60;99.90
12039;DHT22;6080;48.818;9.526;2022-08-30T04:46:37;14.60;99.90
12039;DHT22;6080;48.818;9.526;2022-08-30T04:49:04;14.60;99.90
12039;DHT22;6080;48.818;9.526;2022-08-30T04:51:29;14.60;99.90
12039;DHT22;6080;48.818;9.526;2022-08-30T04:53:55;14.60;99.90
12039;DHT22;6080;48.818;9.526;2022-08-30T04:56:22;14.60;99.90
12039;DHT22;6080;48.818;9.526;2022-08-30T04:58:50;14.60;99.90
12039;DHT22;6080;48.818;9.526;2022-08-30T05:01:19;14.70;99.90
12039;DHT22;6080;48.818;9.526;2022-08-30T05:03:48;14.80;99.90
12039;DHT22;6080;48.818;9.526;2022-08-30T05:06:14;14.90;99.90
12039;DHT22;6080;48.818;9.526;2022-08-30T05:08:41;14.90;99.90
12039;DHT22;6080;48.818;9.526;2022-08-30T05:11:07;15.00;99.90
12039;DHT22;6080;48.818;9.526;2022-08-30T05:13:34;15.00;99.90
12039;DHT22;6080;48.818;9.526;2022-08-30T05:16:00;15.10;99.90
12039;DHT22;6080;48.818;9.526;2022-08-30T05:18:26;15.30;99.90
12039;DHT22;6080;48.818;9.526;2022-08-30T05:21:16;15.50;99.90
12039;DHT22;6080;48.818;9.526;2022-08-30T05:23:43;15.70;99.90
12039;DHT22;6080;48.818;9.526;2022-08-30T05:26:15;15.90;99.90
12039;DHT22;6080;48.818;9.526;2022-08-30T05:28:42;16.00;99.90
12039;DHT22;6080;48.818;9.526;2022-08-30T05:31:18;16.30;99.90
12039;DHT22;6080;48.818;9.526;2022-08-30T05:33:46;16.50;99.90
12039;DHT22;6080;48.818;9.526;2022-08-30T05:36:14;16.60;99.90
12039;DHT22;6080;48.818;9.526;2022-08-30T05:38:41;16.90;99.90
12039;DHT22;6080;48.818;9.526;2022-08-30T05:41:07;17.20;99.90
12039;DHT22;6080;48.818;9.526;2022-08-30T05:43:33;17.50;99.90
12039;DHT22;6080;48.818;9.526;2022-08-30T05:46:06;17.70;99.90
12039;DHT22;6080;48.818;9.526;2022-08-30T05:48:33;18.00;99.90
12039;DHT22;6080;48.818;9.526;2022-08-30T05:51:08;18.30;99.90
12039;DHT22;6080;48.818;9.526;2022-08-30T05:53:35;18.60;99.90
12039;DHT22;6080;48.818;9.526;2022-08-30T05:56:04;19.00;99.90
12039;DHT22;6080;48.818;9.526;2022-08-30T05:58:30;19.30;99.90
12039;DHT22;6080;48.818;9.526;2022-08-30T06:00:56;19.60;99.90
12039;DHT22;6080;48.818;9.526;2022-08-30T06:03:23;20.10;99.90
12039;DHT22;6080;48.818;9.526;2022-08-30T06:05:48;20.20;99.90
12039;DHT22;6080;48.818;9.526;2022-08-30T06:08:14;20.60;99.90
12039;DHT22;6080;48.818;9.526;2022-08-30T06:10:40;20.90;99.90
12039;DHT22;6080;48.818;9.526;2022-08-30T06:13:06;21.00;99.90
12039;DHT22;6080;48.818;9.526;2022-08-30T06:15:32;21.40;99.90
12039;DHT22;6080;48.818;9.526;2022-08-30T06:17:57;21.70;99.90
12039;DHT22;6080;48.818;9.526;2022-08-30T06:20:24;21.90;99.90
12039;DHT22;6080;48.818;9.526;2022-08-30T06:22:50;22.10;99.90
12039;DHT22;6080;48.818;9.526;2022-08-30T06:25:16;22.20;99.90
12039;DHT22;6080;48.818;9.526;2022-08-30T06:27:42;22.50;99.90
12039;DHT22;6080;48.818;9.526;2022-08-30T06:30:09;22.60;99.90
12039;DHT22;6080;48.818;9.526;2022-08-30T06:32:38;22.60;99.90
12039;DHT22;6080;48.818;9.526;2022-08-30T06:35:05;22.80;99.90
12039;DHT22;6080;48.818;9.526;2022-08-30T06:37:33;23.10;99.90
12039;DHT22;6080;48.818;9.526;2022-08-30T06:40:00;23.40;99.90
12039;DHT22;6080;48.818;9.526;2022-08-30T06:42:30;23.60;99.90
12039;DHT22;6080;48.818;9.526;2022-08-30T06:45:00;24.00;99.90
12039;DHT22;6080;48.818;9.526;2022-08-30T06:47:27;24.10;99.90
12039;DHT22;6080;48.818;9.526;2022-08-30T06:49:53;24.30;99.90
12039;DHT22;6080;48.818;9.526;2022-08-30T06:52:19;24.30;99.90
12039;DHT22;6080;48.818;9.526;2022-08-30T06:54:45;24.50;99.90
12039;DHT22;6080;48.818;9.526;2022-08-30T06:57:11;24.80;99.90
12039;DHT22;6080;48.818;9.526;2022-08-30T06:59:38;24.90;99.90
12039;DHT22;6080;48.818;9.526;2022-08-30T07:02:05;25.30;99.90
12039;DHT22;6080;48.818;9.526;2022-08-30T07:04:32;25.30;99.90
12039;DHT22;6080;48.818;9.526;2022-08-30T07:06:59;25.10;99.90
12039;DHT22;6080;48.818;9.526;2022-08-30T07:09:25;25.10;99.90
12039;DHT22;6080;48.818;9.526;2022-08-30T07:11:51;25.30;99.90
12039;DHT22;6080;48.818;9.526;2022-08-30T07:14:18;25.40;99.90
12039;DHT22;6080;48.818;9.526;2022-08-30T07:16:45;25.70;99.90
12039;DHT22;6080;48.818;9.526;2022-08-30T07:19:11;26.20;99.90
12039;DHT22;6080;48.818;9.526;2022-08-30T07:21:40;26.30;99.90
12039;DHT22;6080;48.818;9.526;2022-08-30T07:24:09;26.40;99.90
12039;DHT22;6080;48.818;9.526;2022-08-30T07:26:41;26.30;99.90
12039;DHT22;6080;48.818;9.526;2022-08-30T07:29:08;26.30;99.90
12039;DHT22;6080;48.818;9.526;2022-08-30T07:31:35;26.40;99.90
12039;DHT22;6080;48.818;9.526;2022-08-30T07:34:06;26.30;99.90
12039;DHT22;6080;48.818;9.526;2022-08-30T07:36:33;26.40;99.90
12039;DHT22;6080;48.818;9.526;2022-08-30T07:38:59;26.70;99.90
12039;DHT22;6080;48.818;9.526;2022-08-30T07:41:31;26.40;99.90
12039;DHT22;6080;48.818;9.526;2022-08-30T07:43:57;26.60;99.90
12039;DHT22;6080;48.818;9.526;2022-08-30T07:46:23;26.30;99.90
12039;DHT22;6080;48.818;9.526;2022-08-30T07:48:50;26.10;99.90
12039;DHT22;6080;48.818;9.526;2022-08-30T07:51:19;26.10;99.90
12039;DHT22;6080;48.818;9.526;2022-08-30T07:53:45;26.60;99.90
12039;DHT22;6080;48.818;9.526;2022-08-30T07:56:12;26.70;99.90
12039;DHT22;6080;48.818;9.526;2022-08-30T07:58:37;26.60;99.90
12039;DHT22;6080;48.818;9.526;2022-08-30T08:01:06;26.30;99.90
12039;DHT22;6080;48.818;9.526;2022-08-30T08:03:32;26.60;99.90
12039;DHT22;6080;48.818;9.526;2022-08-30T08:06:03;26.60;99.90
12039;DHT22;6080;48.818;9.526;2022-08-30T08:08:30;26.50;99.90
12039;DHT22;6080;48.818;9.526;2022-08-30T08:10:56;26.40;99.90
12039;DHT22;6080;48.818;9.526;2022-08-30T08:13:23;26.80;99.90
12039;DHT22;6080;48.818;9.526;2022-08-30T08:15:49;27.30;99.90
12039;DHT22;6080;48.818;9.526;2022-08-30T08:18:15;27.30;99.90
12039;DHT22;6080;48.818;9.526;2022-08-30T08:20:41;26.80;99.90
12039;DHT22;6080;48.818;9.526;2022-08-30T08:23:07;26.70;99.90
12039;DHT22;6080;48.818;9.526;2022-08-30T08:25:38;26.90;99.90
12039;DHT22;6080;48.818;9.526;2022-08-30T08:28:05;27.30;99.90
12039;DHT22;6080;48.818;9.526;2022-08-30T08:30:33;27.20;99.90
12039;DHT22;6080;48.818;9.526;2022-08-30T08:33:00;27.00;99.90
12039;DHT22;6080;48.818;9.526;2022-08-30T08:35:26;26.70;99.90
12039;DHT22;6080;48.818;9.526;2022-08-30T08:37:52;26.70;99.90
12039;DHT22;6080;48.818;9.526;2022-08-30T08:40:18;27.10;99.90
12039;DHT22;6080;48.818;9.526;2022-08-30T08:48:28;28.40;99.90
12039;DHT22;6080;48.818;9.526;2022-08-30T08:50:56;28.20;99.90
12039;DHT22;6080;48.818;9.526;2022-08-30T08:53:43;28.30;99.90
12039;DHT22;6080;48.818;9.526;2022-08-30T08:56:16;28.50;99.90
12039;DHT22;6080;48.818;9.526;2022-08-30T08:58:44;28.50;99.90
12039;DHT22;6080;48.818;9.526;2022-08-30T09:01:13;28.90;99.90
12039;DHT22;6080;48.818;9.526;2022-08-30T09:03:40;29.20;99.90
12039;DHT22;6080;48.818;9.526;2022-08-30T09:08:53;29.40;98.00
12039;DHT22;6080;48.818;9.526;2022-08-30T09:11:23;29.10;98.50
12039;DHT22;6080;48.818;9.526;2022-08-30T09:13:50;29.40;98.30
12039;DHT22;6080;48.818;9.526;2022-08-30T09:19:10;29.60;97.40
12039;DHT22;6080;48.818;9.526;2022-08-30T09:21:36;30.00;97.30
12039;DHT22;6080;48.818;9.526;2022-08-30T09:24:03;30.30;96.80
12039;DHT22;6080;48.818;9.526;2022-08-30T09:26:33;30.60;96.20
12039;DHT22;6080;48.818;9.526;2022-08-30T09:29:00;30.50;94.80
12039;DHT22;6080;48.818;9.526;2022-08-30T09:34:00;29.90;94.40
12039;DHT22;6080;48.818;9.526;2022-08-30T09:36:38;29.80;95.10
12039;DHT22;6080;48.818;9.526;2022-08-30T09:39:17;30.10;94.20
12039;DHT22;6080;48.818;9.526;2022-08-30T09:41:46;29.90;94.70
12039;DHT22;6080;48.818;9.526;2022-08-30T09:44:22;30.50;94.20
12039;DHT22;6080;48.818;9.526;2022-08-30T09:46:54;30.70;94.10
12039;DHT22;6080;48.818;9.526;2022-08-30T09:49:46;31.00;93.40
12039;DHT22;6080;48.818;9.526;2022-08-30T09:55:25;30.20;93.30
12039;DHT22;6080;48.818;9.526;2022-08-30T10:01:17;30.90;91.80
12039;DHT22;6080;48.818;9.526;2022-08-30T10:03:50;31.50;90.90
12039;DHT22;6080;48.818;9.526;2022-08-30T10:08:58;31.80;87.90
12039;DHT22;6080;48.818;9.526;2022-08-30T10:11:41;31.70;85.10
12039;DHT22;6080;48.818;9.526;2022-08-30T10:17:52;31.20;83.50
12039;DHT22;6080;48.818;9.526;2022-08-30T10:20:32;32.00;83.80
12039;DHT22;6080;48.818;9.526;2022-08-30T10:23:05;32.50;80.00
12039;DHT22;6080;48.818;9.526;2022-08-30T10:25:35;32.50;81.70
12039;DHT22;6080;48.818;9.526;2022-08-30T10:28:10;32.70;81.20
12039;DHT22;6080;48.818;9.526;2022-08-30T10:30:44;33.00;78.10
12039;DHT22;6080;48.818;9.526;2022-08-30T10:33:24;32.70;77.70
12039;DHT22;6080;48.818;9.526;2022-08-30T10:35:56;33.00;77.90
12039;DHT22;6080;48.818;9.526;2022-08-30T10:38:35;33.20;75.10
12039;DHT22;6080;48.818;9.526;2022-08-30T10:41:26;33.90;73.00
12039;DHT22;6080;48.818;9.526;2022-08-30T10:44:00;33.20;76.10
12039;DHT22;6080;48.818;9.526;2022-08-30T10:49:25;33.70;70.40
12039;DHT22;6080;48.818;9.526;2022-08-30T10:54:46;33.10;73.50
12039;DHT22;6080;48.818;9.526;2022-08-30T10:57:13;33.10;73.40
12039;DHT22;6080;48.818;9.526;2022-08-30T10:59:59;33.80;72.50
12039;DHT22;6080;48.818;9.526;2022-08-30T11:13:29;34.80;67.30
12039;DHT22;6080;48.818;9.526;2022-08-30T11:16:06;35.00;66.10
12039;DHT22;6080;48.818;9.526;2022-08-30T11:24:02;34.90;63.70
12039;DHT22;6080;48.818;9.526;2022-08-30T11:26:53;35.20;62.60
12039;DHT22;6080;48.818;9.526;2022-08-30T11:32:22;35.40;60.50
12039;DHT22;6080;48.818;9.526;2022-08-30T11:34:57;35.50;59.80
12039;DHT22;6080;48.818;9.526;2022-08-30T11:42:49;36.70;57.20
12039;DHT22;6080;48.818;9.526;2022-08-30T11:47:55;37.20;55.40
12039;DHT22;6080;48.818;9.526;2022-08-30T11:52:58;36.30;55.90
12039;DHT22;6080;48.818;9.526;2022-08-30T11:55:42;36.40;55.30
12039;DHT22;6080;48.818;9.526;2022-08-30T11:58:26;36.20;56.10
12039;DHT22;6080;48.818;9.526;2022-08-30T12:01:15;35.80;55.50
12039;DHT22;6080;48.818;9.526;2022-08-30T12:03:43;36.50;55.00
12039;DHT22;6080;48.818;9.526;2022-08-30T12:06:10;35.90;55.60
12039;DHT22;6080;48.818;9.526;2022-08-30T12:08:46;35.10;55.30
12039;DHT22;6080;48.818;9.526;2022-08-30T12:16:13;34.70;55.70
12039;DHT22;6080;48.818;9.526;2022-08-30T12:18:46;34.60;58.70
12039;DHT22;6080;48.818;9.526;2022-08-30T12:21:24;35.10;56.00
12039;DHT22;6080;48.818;9.526;2022-08-30T12:29:14;34.10;57.60
12039;DHT22;6080;48.818;9.526;2022-08-30T12:34:18;34.20;57.50
12039;DHT22;6080;48.818;9.526;2022-08-30T12:36:52;33.50;57.90
12039;DHT22;6080;48.818;9.526;2022-08-30T12:39:23;33.30;58.40
12039;DHT22;6080;48.818;9.526;2022-08-30T12:41:49;33.00;59.10
12039;DHT22;6080;48.818;9.526;2022-08-30T12:44:18;33.30;58.50
12039;DHT22;6080;48.818;9.526;2022-08-30T12:46:47;33.40;58.10
12039;DHT22;6080;48.818;9.526;2022-08-30T12:49:18;34.00;57.90
12039;DHT22;6080;48.818;9.526;2022-08-30T12:51:45;34.00;56.80
12039;DHT22;6080;48.818;9.526;2022-08-30T12:54:20;34.50;57.60
12039;DHT22;6080;48.818;9.526;2022-08-30T12:57:03;35.30;55.00
12039;DHT22;6080;48.818;9.526;2022-08-30T12:59:52;35.10;55.10
12039;DHT22;6080;48.818;9.526;2022-08-30T13:02:40;34.90;55.10
12039;DHT22;6080;48.818;9.526;2022-08-30T13:10:51;35.60;54.20
12039;DHT22;6080;48.818;9.526;2022-08-30T13:18:53;35.60;52.90
12039;DHT22;6080;48.818;9.526;2022-08-30T13:23:50;34.90;53.40
12039;DHT22;6080;48.818;9.526;2022-08-30T13:26:16;34.60;55.40
12039;DHT22;6080;48.818;9.526;2022-08-30T13:28:56;34.20;55.70
12039;DHT22;6080;48.818;9.526;2022-08-30T13:31:24;33.30;57.30
12039;DHT22;6080;48.818;9.526;2022-08-30T13:33:50;33.00;58.00
12039;DHT22;6080;48.818;9.526;2022-08-30T13:36:31;33.40;56.50
12039;DHT22;6080;48.818;9.526;2022-08-30T13:38:58;34.10;55.60
12039;DHT22;6080;48.818;9.526;2022-08-30T13:41:25;35.50;53.90
12039;DHT22;6080;48.818;9.526;2022-08-30T13:43:52;36.10;51.90
12039;DHT22;6080;48.818;9.526;2022-08-30T13:46:19;36.60;51.20
12039;DHT22;6080;48.818;9.526;2022-08-30T13:48:45;36.90;50.50
12039;DHT22;6080;48.818;9.526;2022-08-30T13:51:11;36.90;50.60
12039;DHT22;6080;48.818;9.526;2022-08-30T13:53:38;36.60;49.80
12039;DHT22;6080;48.818;9.526;2022-08-30T13:56:04;36.50;50.80
12039;DHT22;6080;48.818;9.526;2022-08-30T13:58:31;36.90;49.60
12039;DHT22;6080;48.818;9.526;2022-08-30T14:00:58;37.40;48.40
12039;DHT22;6080;48.818;9.526;2022-08-30T14:03:24;37.00;48.80
12039;DHT22;6080;48.818;9.526;2022-08-30T14:05:51;36.00;49.90
12039;DHT22;6080;48.818;9.526;2022-08-30T14:08:24;34.90;52.00
12039;DHT22;6080;48.818;9.526;2022-08-30T14:10:53;34.90;52.50
12039;DHT22;6080;48.818;9.526;2022-08-30T14:13:19;34.70;54.40
12039;DHT22;6080;48.818;9.526;2022-08-30T14:15:45;34.70;52.80
12039;DHT22;6080;48.818;9.526;2022-08-30T14:18:12;35.20;52.90
12039;DHT22;6080;48.818;9.526;2022-08-30T14:20:38;34.90;53.50
12039;DHT22;6080;48.818;9.526;2022-08-30T14:23:04;33.30;54.90
12039;DHT22;6080;48.818;9.526;2022-08-30T14:25:30;32.30;57.20
12039;DHT22;6080;48.818;9.526;2022-08-30T14:27:56;31.80;58.50
12039;DHT22;6080;48.818;9.526;2022-08-30T14:30:22;31.70;58.00
12039;DHT22;6080;48.818;9.526;2022-08-30T14:32:49;31.80;58.30
12039;DHT22;6080;48.818;9.526;2022-08-30T14:35:15;32.20;57.60
12039;DHT22;6080;48.818;9.526;2022-08-30T14:37:46;32.30;57.50
12039;DHT22;6080;48.818;9.526;2022-08-30T14:40:13;31.80;58.10
12039;DHT22;6080;48.818;9.526;2022-08-30T14:42:38;31.50;58.30
12039;DHT22;6080;48.818;9.526;2022-08-30T14:45:05;30.80;60.00
12039;DHT22;6080;48.818;9.526;2022-08-30T14:47:31;30.50;60.70
12039;DHT22;6080;48.818;9.526;2022-08-30T14:49:57;30.20;60.80
12039;DHT22;6080;48.818;9.526;2022-08-30T14:52:27;30.20;61.50
12039;DHT22;6080;48.818;9.526;2022-08-30T14:54:53;30.00;62.60
12039;DHT22;6080;48.818;9.526;2022-08-30T14:57:19;29.90;63.80
12039;DHT22;6080;48.818;9.526;2022-08-30T14:59:45;29.80;64.10
12039;DHT22;6080;48.818;9.526;2022-08-30T15:02:11;29.70;63.90
12039;DHT22;6080;48.818;9.526;2022-08-30T15:04:37;29.60;64.60
12039;DHT22;6080;48.818;9.526;2022-08-30T15:07:03;29.60;64.70
12039;DHT22;6080;48.818;9.526;2022-08-30T15:09:29;29.50;65.60
12039;DHT22;6080;48.818;9.526;2022-08-30T15:11:56;30.10;64.90
12039;DHT22;6080;48.818;9.526;2022-08-30T15:14:22;30.80;63.20
12039;DHT22;6080;48.818;9.526;2022-08-30T15:16:51;31.90;61.00
12039;DHT22;6080;48.818;9.526;2022-08-30T15:19:18;32.70;59.50
12039;DHT22;6080;48.818;9.526;2022-08-30T15:21:46;33.30;58.00
12039;DHT22;6080;48.818;9.526;2022-08-30T15:24:15;34.20;57.00
12039;DHT22;6080;48.818;9.526;2022-08-30T15:26:41;34.90;55.40
12039;DHT22;6080;48.818;9.526;2022-08-30T15:29:10;35.40;53.80
12039;DHT22;6080;48.818;9.526;2022-08-30T15:31:37;34.90;55.00
12039;DHT22;6080;48.818;9.526;2022-08-30T15:34:06;35.20;54.40
12039;DHT22;6080;48.818;9.526;2022-08-30T15:36:32;35.40;52.90
12039;DHT22;6080;48.818;9.526;2022-08-30T15:38:59;35.40;53.60
12039;DHT22;6080;48.818;9.526;2022-08-30T15:41:26;34.80;53.80
12039;DHT22;6080;48.818;9.526;2022-08-30T15:43:54;34.40;54.90
12039;DHT22;6080;48.818;9.526;2022-08-30T15:46:29;34.00;54.60
12039;DHT22;6080;48.818;9.526;2022-08-30T15:49:12;33.80;55.30
12039;DHT22;6080;48.818;9.526;2022-08-30T15:51:41;33.60;55.60
12039;DHT22;6080;48.818;9.526;2022-08-30T15:54:07;33.90;54.60
12039;DHT22;6080;48.818;9.526;2022-08-30T15:56:34;33.50;55.30
12039;DHT22;6080;48.818;9.526;2022-08-30T15:58:59;33.00;56.90
12039;DHT22;6080;48.818;9.526;2022-08-30T16:01:25;32.70;57.40
12039;DHT22;6080;48.818;9.526;2022-08-30T16:03:51;32.80;56.90
12039;DHT22;6080;48.818;9.526;2022-08-30T16:06:23;32.20;58.00
12039;DHT22;6080;48.818;9.526;2022-08-30T16:08:50;31.60;59.90
12039;DHT22;6080;48.818;9.526;2022-08-30T16:11:18;31.50;59.90
12039;DHT22;6080;48.818;9.526;2022-08-30T16:13:48;31.10;60.90
12039;DHT22;6080;48.818;9.526;2022-08-30T16:16:15;30.60;61.50
12039;DHT22;6080;48.818;9.526;2022-08-30T16:18:41;30.20;62.10
12039;DHT22;6080;48.818;9.526;2022-08-30T16:21:10;29.70;64.00
12039;DHT22;6080;48.818;9.526;2022-08-30T16:23:37;29.30;64.40
12039;DHT22;6080;48.818;9.526;2022-08-30T16:26:03;29.00;65.00
12039;DHT22;6080;48.818;9.526;2022-08-30T16:28:29;28.80;65.80
12039;DHT22;6080;48.818;9.526;2022-08-30T16:30:55;28.60;66.50
12039;DHT22;6080;48.818;9.526;2022-08-30T16:33:22;28.50;67.20
12039;DHT22;6080;48.818;9.526;2022-08-30T16:35:52;28.30;68.20
12039;DHT22;6080;48.818;9.526;2022-08-30T16:38:19;28.30;67.90
12039;DHT22;6080;48.818;9.526;2022-08-30T16:40:46;28.30;68.60
12039;DHT22;6080;48.818;9.526;2022-08-30T16:43:13;28.40;68.60
12039;DHT22;6080;48.818;9.526;2022-08-30T16:45:39;28.30;68.30
12039;DHT22;6080;48.818;9.526;2022-08-30T16:48:06;28.00;68.20
12039;DHT22;6080;48.818;9.526;2022-08-30T16:50:37;27.70;69.20
12039;DHT22;6080;48.818;9.526;2022-08-30T16:53:04;27.60;70.30
12039;DHT22;6080;48.818;9.526;2022-08-30T16:55:31;27.50;70.50
12039;DHT22;6080;48.818;9.526;2022-08-30T16:58:01;27.50;70.50
12039;DHT22;6080;48.818;9.526;2022-08-30T17:00:29;27.50;70.60
12039;DHT22;6080;48.818;9.526;2022-08-30T17:02:57;27.40;71.10
12039;DHT22;6080;48.818;9.526;2022-08-30T17:05:24;27.30;71.70
12039;DHT22;6080;48.818;9.526;2022-08-30T17:07:51;27.20;71.30
12039;DHT22;6080;48.818;9.526;2022-08-30T17:10:17;27.20;72.20
12039;DHT22;6080;48.818;9.526;2022-08-30T17:12:43;27.10;72.80
12039;DHT22;6080;48.818;9.526;2022-08-30T17:15:10;27.10;72.50
12039;DHT22;6080;48.818;9.526;2022-08-30T17:17:36;27.00;72.60
12039;DHT22;6080;48.818;9.526;2022-08-30T17:20:04;26.80;72.70
12039;DHT22;6080;48.818;9.526;2022-08-30T17:22:31;26.70;72.80